sensor_id;sensor_type;location;lat;lon;timestamp;P1;durP1;ratioP1;P2;durP2;ratioP2
70420;SDS011;57848;51.938;15.520;2023-07-28T00:01:33;7.63;;;4.23;;
70420;SDS011;57848;51.938;15.520;2023-07-28T00:03:58;7.60;;;3.83;;
70420;SDS011;57848;51.938;15.520;2023-07-28T00:06:23;8.83;;;4.33;;
70420;SDS011;57848;51.938;15.520;2023-07-28T00:08:49;8.75;;;4.38;;
70420;SDS011;57848;51.938;15.520;2023-07-28T00:11:15;8.57;;;4.87;;
70420;SDS011;57848;51.938;15.520;2023-07-28T00:13:41;9.32;;;5.03;;
70420;SDS011;57848;51.938;15.520;2023-07-28T00:16:07;9.50;;;5.28;;
70420;SDS011;57848;51.938;15.520;2023-07-28T00:18:33;9.30;;;4.90;;
70420;SDS011;57848;51.938;15.520;2023-07-28T00:20:59;9.48;;;4.72;;
70420;SDS011;57848;51.938;15.520;2023-07-28T00:23:24;7.67;;;4.13;;
70420;SDS011;57848;51.938;15.520;2023-07-28T00:25:50;7.53;;;4.07;;
70420;SDS011;57848;51.938;15.520;2023-07-28T00:28:15;7.05;;;4.13;;
70420;SDS011;57848;51.938;15.520;2023-07-28T00:30:40;6.60;;;3.50;;
70420;SDS011;57848;51.938;15.520;2023-07-28T00:33:06;6.90;;;3.20;;
70420;SDS011;57848;51.938;15.520;2023-07-28T00:35:31;6.90;;;3.50;;
70420;SDS011;57848;51.938;15.520;2023-07-28T00:37:57;7.10;;;3.05;;
70420;SDS011;57848;51.938;15.520;2023-07-28T00:40:23;6.20;;;2.90;;
70420;SDS011;57848;51.938;15.520;2023-07-28T00:42:48;6.30;;;2.90;;
70420;SDS011;57848;51.938;15.520;2023-07-28T00:45:14;6.40;;;2.63;;
70420;SDS011;57848;51.938;15.520;2023-07-28T00:47:40;5.93;;;2.60;;
70420;SDS011;57848;51.938;15.520;2023-07-28T00:50:06;5.45;;;2.40;;
70420;SDS011;57848;51.938;15.520;2023-07-28T00:52:33;6.97;;;2.70;;
70420;SDS011;57848;51.938;15.520;2023-07-28T00:54:59;7.10;;;2.93;;
70420;SDS011;57848;51.938;15.520;2023-07-28T00:57:24;7.07;;;2.92;;
70420;SDS011;57848;51.938;15.520;2023-07-28T00:59:50;7.60;;;3.10;;
70420;SDS011;57848;51.938;15.520;2023-07-28T01:02:15;6.80;;;3.25;;
70420;SDS011;57848;51.938;15.520;2023-07-28T01:04:41;6.97;;;2.83;;
70420;SDS011;57848;51.938;15.520;2023-07-28T01:07:09;9.13;;;3.30;;
70420;SDS011;57848;51.938;15.520;2023-07-28T01:09:39;6.70;;;2.95;;
70420;SDS011;57848;51.938;15.520;2023-07-28T01:12:10;6.32;;;2.85;;
70420;SDS011;57848;51.938;15.520;2023-07-28T01:14:35;6.67;;;2.60;;
70420;SDS011;57848;51.938;15.520;2023-07-28T01:17:01;6.57;;;2.93;;
70420;SDS011;57848;51.938;15.520;2023-07-28T01:19:26;7.77;;;2.97;;
70420;SDS011;57848;51.938;15.520;2023-07-28T01:22:12;8.20;;;3.50;;
70420;SDS011;57848;51.938;15.520;2023-07-28T01:24:55;6.70;;;3.47;;
70420;SDS011;57848;51.938;15.520;2023-07-28T01:27:25;7.25;;;3.67;;
70420;SDS011;57848;51.938;15.520;2023-07-28T01:29:53;7.20;;;3.40;;
70420;SDS011;57848;51.938;15.520;2023-07-28T01:32:18;7.33;;;3.73;;
70420;SDS011;57848;51.938;15.520;2023-07-28T01:34:44;9.43;;;3.65;;
70420;SDS011;57848;51.938;15.520;2023-07-28T01:37:10;7.90;;;4.10;;
70420;SDS011;57848;51.938;15.520;2023-07-28T01:39:35;7.13;;;3.93;;
70420;SDS011;57848;51.938;15.520;2023-07-28T01:42:00;7.33;;;4.00;;
70420;SDS011;57848;51.938;15.520;2023-07-28T01:44:26;6.93;;;3.70;;
70420;SDS011;57848;51.938;15.520;2023-07-28T01:46:51;9.00;;;3.63;;
70420;SDS011;57848;51.938;15.520;2023-07-28T01:49:16;6.60;;;3.20;;
70420;SDS011;57848;51.938;15.520;2023-07-28T01:51:42;7.25;;;3.70;;
70420;SDS011;57848;51.938;15.520;2023-07-28T01:54:07;9.07;;;3.90;;
70420;SDS011;57848;51.938;15.520;2023-07-28T01:56:32;7.70;;;4.20;;
70420;SDS011;57848;51.938;15.520;2023-07-28T01:58:58;10.33;;;3.97;;
70420;SDS011;57848;51.938;15.520;2023-07-28T02:01:23;8.03;;;3.80;;
70420;SDS011;57848;51.938;15.520;2023-07-28T02:03:48;8.23;;;4.00;;
70420;SDS011;57848;51.938;15.520;2023-07-28T02:06:14;8.23;;;4.07;;
70420;SDS011;57848;51.938;15.520;2023-07-28T02:08:39;7.47;;;3.20;;
70420;SDS011;57848;51.938;15.520;2023-07-28T02:11:04;8.07;;;3.17;;
70420;SDS011;57848;51.938;15.520;2023-07-28T02:13:30;8.03;;;3.70;;
70420;SDS011;57848;51.938;15.520;2023-07-28T02:15:55;6.43;;;3.27;;
70420;SDS011;57848;51.938;15.520;2023-07-28T02:18:20;6.53;;;3.00;;
70420;SDS011;57848;51.938;15.520;2023-07-28T02:20:49;6.70;;;3.30;;
70420;SDS011;57848;51.938;15.520;2023-07-28T02:23:15;6.20;;;3.13;;
70420;SDS011;57848;51.938;15.520;2023-07-28T02:25:40;7.00;;;3.17;;
70420;SDS011;57848;51.938;15.520;2023-07-28T02:28:07;6.30;;;3.00;;
70420;SDS011;57848;51.938;15.520;2023-07-28T02:30:33;8.35;;;3.20;;
70420;SDS011;57848;51.938;15.520;2023-07-28T02:32:58;6.37;;;3.00;;
70420;SDS011;57848;51.938;15.520;2023-07-28T02:35:24;7.03;;;3.13;;
70420;SDS011;57848;51.938;15.520;2023-07-28T02:37:49;6.90;;;3.63;;
70420;SDS011;57848;51.938;15.520;2023-07-28T02:40:14;7.97;;;3.47;;
70420;SDS011;57848;51.938;15.520;2023-07-28T02:42:40;8.93;;;3.77;;
70420;SDS011;57848;51.938;15.520;2023-07-28T02:45:05;8.80;;;3.80;;
70420;SDS011;57848;51.938;15.520;2023-07-28T02:47:31;7.35;;;3.80;;
70420;SDS011;57848;51.938;15.520;2023-07-28T02:49:57;7.53;;;3.30;;
70420;SDS011;57848;51.938;15.520;2023-07-28T02:52:23;7.23;;;3.73;;
70420;SDS011;57848;51.938;15.520;2023-07-28T02:54:48;6.20;;;3.07;;
70420;SDS011;57848;51.938;15.520;2023-07-28T02:57:15;6.80;;;3.38;;
70420;SDS011;57848;51.938;15.520;2023-07-28T02:59:42;5.68;;;2.70;;
70420;SDS011;57848;51.938;15.520;2023-07-28T03:02:07;7.53;;;3.23;;
70420;SDS011;57848;51.938;15.520;2023-07-28T03:04:33;7.05;;;2.67;;
70420;SDS011;57848;51.938;15.520;2023-07-28T03:07:17;6.40;;;2.87;;
70420;SDS011;57848;51.938;15.520;2023-07-28T03:09:46;7.38;;;2.80;;
70420;SDS011;57848;51.938;15.520;2023-07-28T03:12:12;5.68;;;2.30;;
70420;SDS011;57848;51.938;15.520;2023-07-28T03:14:38;5.65;;;1.92;;
70420;SDS011;57848;51.938;15.520;2023-07-28T03:17:03;5.20;;;1.80;;
70420;SDS011;57848;51.938;15.520;2023-07-28T03:19:29;5.17;;;1.97;;
70420;SDS011;57848;51.938;15.520;2023-07-28T03:21:54;5.40;;;2.10;;
70420;SDS011;57848;51.938;15.520;2023-07-28T03:24:19;6.23;;;1.77;;
70420;SDS011;57848;51.938;15.520;2023-07-28T03:26:45;5.95;;;2.13;;
70420;SDS011;57848;51.938;15.520;2023-07-28T03:29:10;6.03;;;1.90;;
70420;SDS011;57848;51.938;15.520;2023-07-28T03:31:36;5.53;;;2.50;;
70420;SDS011;57848;51.938;15.520;2023-07-28T03:34:02;5.47;;;2.40;;
70420;SDS011;57848;51.938;15.520;2023-07-28T03:36:28;5.80;;;2.30;;
70420;SDS011;57848;51.938;15.520;2023-07-28T03:38:54;5.63;;;2.50;;
70420;SDS011;57848;51.938;15.520;2023-07-28T03:41:20;6.73;;;2.50;;
70420;SDS011;57848;51.938;15.520;2023-07-28T03:43:45;5.88;;;2.50;;
70420;SDS011;57848;51.938;15.520;2023-07-28T03:46:11;5.13;;;2.13;;
70420;SDS011;57848;51.938;15.520;2023-07-28T03:48:36;6.10;;;1.97;;
70420;SDS011;57848;51.938;15.520;2023-07-28T03:51:02;5.20;;;1.48;;
70420;SDS011;57848;51.938;15.520;2023-07-28T03:53:27;4.00;;;1.20;;
70420;SDS011;57848;51.938;15.520;2023-07-28T03:55:52;5.90;;;1.10;;
70420;SDS011;57848;51.938;15.520;2023-07-28T03:58:22;4.30;;;1.20;;
70420;SDS011;57848;51.938;15.520;2023-07-28T04:00:48;4.50;;;1.77;;
70420;SDS011;57848;51.938;15.520;2023-07-28T04:03:13;4.22;;;1.15;;
70420;SDS011;57848;51.938;15.520;2023-07-28T04:05:39;4.87;;;1.60;;
70420;SDS011;57848;51.938;15.520;2023-07-28T04:08:04;5.30;;;1.00;;
70420;SDS011;57848;51.938;15.520;2023-07-28T04:10:30;4.90;;;1.60;;
70420;SDS011;57848;51.938;15.520;2023-07-28T04:12:55;4.30;;;1.40;;
70420;SDS011;57848;51.938;15.520;2023-07-28T04:15:20;10.20;;;1.80;;
70420;SDS011;57848;51.938;15.520;2023-07-28T04:17:45;5.82;;;1.90;;
70420;SDS011;57848;51.938;15.520;2023-07-28T04:20:11;6.77;;;2.30;;
70420;SDS011;57848;51.938;15.520;2023-07-28T04:22:36;6.33;;;2.10;;
70420;SDS011;57848;51.938;15.520;2023-07-28T04:25:02;5.87;;;2.33;;
70420;SDS011;57848;51.938;15.520;2023-07-28T04:27:28;5.45;;;2.38;;
70420;SDS011;57848;51.938;15.520;2023-07-28T04:29:57;5.85;;;2.20;;
70420;SDS011;57848;51.938;15.520;2023-07-28T04:32:23;6.90;;;2.45;;
70420;SDS011;57848;51.938;15.520;2023-07-28T04:34:51;5.90;;;2.63;;
70420;SDS011;57848;51.938;15.520;2023-07-28T04:37:35;7.57;;;2.50;;
70420;SDS011;57848;51.938;15.520;2023-07-28T04:40:01;7.63;;;2.78;;
70420;SDS011;57848;51.938;15.520;2023-07-28T04:42:32;5.82;;;2.50;;
70420;SDS011;57848;51.938;15.520;2023-07-28T04:44:58;5.47;;;2.50;;
70420;SDS011;57848;51.938;15.520;2023-07-28T04:47:23;5.90;;;2.60;;
70420;SDS011;57848;51.938;15.520;2023-07-28T04:49:49;5.90;;;2.50;;
70420;SDS011;57848;51.938;15.520;2023-07-28T04:52:40;8.57;;;2.95;;
70420;SDS011;57848;51.938;15.520;2023-07-28T04:55:33;6.28;;;2.53;;
70420;SDS011;57848;51.938;15.520;2023-07-28T04:57:59;6.53;;;2.80;;
70420;SDS011;57848;51.938;15.520;2023-07-28T05:00:31;5.90;;;2.85;;
70420;SDS011;57848;51.938;15.520;2023-07-28T05:02:57;5.87;;;2.97;;
70420;SDS011;57848;51.938;15.520;2023-07-28T05:05:23;8.32;;;3.15;;
70420;SDS011;57848;51.938;15.520;2023-07-28T05:07:48;7.60;;;2.60;;
70420;SDS011;57848;51.938;15.520;2023-07-28T05:10:14;6.22;;;2.70;;
70420;SDS011;57848;51.938;15.520;2023-07-28T05:12:41;9.32;;;2.38;;
70420;SDS011;57848;51.938;15.520;2023-07-28T05:15:06;8.03;;;2.10;;
70420;SDS011;57848;51.938;15.520;2023-07-28T05:17:37;6.03;;;2.42;;
70420;SDS011;57848;51.938;15.520;2023-07-28T05:20:21;5.13;;;2.20;;
70420;SDS011;57848;51.938;15.520;2023-07-28T05:22:53;7.25;;;2.20;;
70420;SDS011;57848;51.938;15.520;2023-07-28T05:25:21;7.07;;;2.22;;
70420;SDS011;57848;51.938;15.520;2023-07-28T05:27:47;5.68;;;2.22;;
70420;SDS011;57848;51.938;15.520;2023-07-28T05:30:12;5.63;;;2.10;;
70420;SDS011;57848;51.938;15.520;2023-07-28T05:32:38;7.33;;;2.20;;
70420;SDS011;57848;51.938;15.520;2023-07-28T05:35:18;6.30;;;2.08;;
70420;SDS011;57848;51.938;15.520;2023-07-28T05:37:46;7.30;;;2.22;;
70420;SDS011;57848;51.938;15.520;2023-07-28T05:40:12;6.47;;;2.60;;
70420;SDS011;57848;51.938;15.520;2023-07-28T05:42:38;7.23;;;2.27;;
70420;SDS011;57848;51.938;15.520;2023-07-28T05:45:03;6.30;;;2.70;;
70420;SDS011;57848;51.938;15.520;2023-07-28T05:47:29;7.13;;;2.90;;
70420;SDS011;57848;51.938;15.520;2023-07-28T05:49:54;6.07;;;3.00;;
70420;SDS011;57848;51.938;15.520;2023-07-28T05:52:21;9.97;;;2.90;;
70420;SDS011;57848;51.938;15.520;2023-07-28T05:54:47;6.95;;;2.83;;
70420;SDS011;57848;51.938;15.520;2023-07-28T05:57:13;9.85;;;3.42;;
70420;SDS011;57848;51.938;15.520;2023-07-28T05:59:39;6.10;;;2.90;;
70420;SDS011;57848;51.938;15.520;2023-07-28T06:02:04;7.65;;;3.25;;
70420;SDS011;57848;51.938;15.520;2023-07-28T06:04:45;6.33;;;2.77;;
70420;SDS011;57848;51.938;15.520;2023-07-28T06:07:11;7.88;;;3.03;;
70420;SDS011;57848;51.938;15.520;2023-07-28T06:09:37;7.70;;;3.00;;
70420;SDS011;57848;51.938;15.520;2023-07-28T06:12:03;9.75;;;3.10;;
70420;SDS011;57848;51.938;15.520;2023-07-28T06:14:28;9.23;;;3.37;;
70420;SDS011;57848;51.938;15.520;2023-07-28T06:16:55;6.43;;;3.28;;
70420;SDS011;57848;51.938;15.520;2023-07-28T06:19:22;7.68;;;3.40;;
70420;SDS011;57848;51.938;15.520;2023-07-28T06:21:50;8.38;;;3.20;;
70420;SDS011;57848;51.938;15.520;2023-07-28T06:24:16;9.75;;;3.67;;
70420;SDS011;57848;51.938;15.520;2023-07-28T06:26:42;9.03;;;3.87;;
70420;SDS011;57848;51.938;15.520;2023-07-28T06:29:07;8.43;;;3.57;;
70420;SDS011;57848;51.938;15.520;2023-07-28T06:31:33;6.03;;;3.13;;
70420;SDS011;57848;51.938;15.520;2023-07-28T06:33:59;9.32;;;3.88;;
70420;SDS011;57848;51.938;15.520;2023-07-28T06:36:25;8.00;;;3.33;;
70420;SDS011;57848;51.938;15.520;2023-07-28T06:38:50;10.13;;;3.20;;
70420;SDS011;57848;51.938;15.520;2023-07-28T06:41:17;6.93;;;3.10;;
70420;SDS011;57848;51.938;15.520;2023-07-28T06:43:44;5.85;;;2.05;;
70420;SDS011;57848;51.938;15.520;2023-07-28T06:46:10;7.43;;;2.90;;
70420;SDS011;57848;51.938;15.520;2023-07-28T06:48:35;6.37;;;2.40;;
70420;SDS011;57848;51.938;15.520;2023-07-28T06:51:00;8.10;;;2.40;;
70420;SDS011;57848;51.938;15.520;2023-07-28T06:53:26;6.27;;;2.67;;
70420;SDS011;57848;51.938;15.520;2023-07-28T06:55:52;5.30;;;2.40;;
70420;SDS011;57848;51.938;15.520;2023-07-28T06:58:17;6.00;;;2.40;;
70420;SDS011;57848;51.938;15.520;2023-07-28T07:00:43;6.93;;;2.67;;
70420;SDS011;57848;51.938;15.520;2023-07-28T07:03:08;6.33;;;2.93;;
70420;SDS011;57848;51.938;15.520;2023-07-28T07:05:34;10.70;;;2.72;;
70420;SDS011;57848;51.938;15.520;2023-07-28T07:08:00;5.60;;;2.63;;
70420;SDS011;57848;51.938;15.520;2023-07-28T07:10:26;6.35;;;2.65;;
70420;SDS011;57848;51.938;15.520;2023-07-28T07:12:52;7.53;;;3.43;;
70420;SDS011;57848;51.938;15.520;2023-07-28T07:15:17;6.97;;;2.90;;
70420;SDS011;57848;51.938;15.520;2023-07-28T07:17:42;8.40;;;4.07;;
70420;SDS011;57848;51.938;15.520;2023-07-28T07:20:08;7.67;;;3.30;;
70420;SDS011;57848;51.938;15.520;2023-07-28T07:22:35;8.18;;;3.22;;
70420;SDS011;57848;51.938;15.520;2023-07-28T07:25:01;8.03;;;3.50;;
70420;SDS011;57848;51.938;15.520;2023-07-28T07:27:26;7.60;;;3.50;;
70420;SDS011;57848;51.938;15.520;2023-07-28T07:29:52;6.27;;;3.17;;
70420;SDS011;57848;51.938;15.520;2023-07-28T07:32:17;6.33;;;3.00;;
70420;SDS011;57848;51.938;15.520;2023-07-28T07:34:42;12.07;;;3.40;;
70420;SDS011;57848;51.938;15.520;2023-07-28T07:37:08;7.87;;;3.30;;
70420;SDS011;57848;51.938;15.520;2023-07-28T07:39:34;6.82;;;3.03;;
70420;SDS011;57848;51.938;15.520;2023-07-28T07:42:01;7.18;;;3.25;;
70420;SDS011;57848;51.938;15.520;2023-07-28T07:44:26;7.00;;;3.20;;
70420;SDS011;57848;51.938;15.520;2023-07-28T07:46:52;6.73;;;2.97;;
70420;SDS011;57848;51.938;15.520;2023-07-28T07:49:17;9.00;;;3.35;;
70420;SDS011;57848;51.938;15.520;2023-07-28T07:51:42;6.03;;;3.07;;
70420;SDS011;57848;51.938;15.520;2023-07-28T07:54:08;6.30;;;2.80;;
70420;SDS011;57848;51.938;15.520;2023-07-28T07:56:33;7.33;;;3.23;;
70420;SDS011;57848;51.938;15.520;2023-07-28T07:58:59;6.50;;;2.60;;
70420;SDS011;57848;51.938;15.520;2023-07-28T08:01:24;6.33;;;2.30;;
70420;SDS011;57848;51.938;15.520;2023-07-28T08:03:49;5.25;;;1.55;;
70420;SDS011;57848;51.938;15.520;2023-07-28T08:06:14;4.70;;;1.60;;
70420;SDS011;57848;51.938;15.520;2023-07-28T08:08:40;7.90;;;1.90;;
70420;SDS011;57848;51.938;15.520;2023-07-28T08:11:06;7.10;;;1.87;;
70420;SDS011;57848;51.938;15.520;2023-07-28T08:13:32;5.28;;;2.28;;
70420;SDS011;57848;51.938;15.520;2023-07-28T08:15:58;5.18;;;1.98;;
70420;SDS011;57848;51.938;15.520;2023-07-28T08:18:23;5.20;;;2.40;;
70420;SDS011;57848;51.938;15.520;2023-07-28T08:20:48;6.03;;;2.20;;
70420;SDS011;57848;51.938;15.520;2023-07-28T08:23:14;6.70;;;2.20;;
70420;SDS011;57848;51.938;15.520;2023-07-28T08:25:39;6.00;;;2.20;;
70420;SDS011;57848;51.938;15.520;2023-07-28T08:28:04;6.57;;;2.50;;
70420;SDS011;57848;51.938;15.520;2023-07-28T08:30:30;5.53;;;2.30;;
70420;SDS011;57848;51.938;15.520;2023-07-28T08:32:56;5.43;;;2.40;;
70420;SDS011;57848;51.938;15.520;2023-07-28T08:35:22;6.45;;;2.50;;
70420;SDS011;57848;51.938;15.520;2023-07-28T08:37:47;9.00;;;2.37;;
70420;SDS011;57848;51.938;15.520;2023-07-28T08:40:13;6.00;;;2.23;;
70420;SDS011;57848;51.938;15.520;2023-07-28T08:42:39;8.60;;;2.60;;
70420;SDS011;57848;51.938;15.520;2023-07-28T08:45:05;8.18;;;2.60;;
70420;SDS011;57848;51.938;15.520;2023-07-28T08:47:33;6.97;;;2.47;;
70420;SDS011;57848;51.938;15.520;2023-07-28T08:49:59;7.55;;;2.80;;
70420;SDS011;57848;51.938;15.520;2023-07-28T08:52:24;6.20;;;2.47;;
70420;SDS011;57848;51.938;15.520;2023-07-28T08:54:50;7.17;;;2.53;;
70420;SDS011;57848;51.938;15.520;2023-07-28T08:57:16;7.28;;;2.60;;
70420;SDS011;57848;51.938;15.520;2023-07-28T08:59:41;5.87;;;2.23;;
70420;SDS011;57848;51.938;15.520;2023-07-28T09:02:13;5.60;;;2.25;;
70420;SDS011;57848;51.938;15.520;2023-07-28T09:04:40;5.37;;;2.00;;
70420;SDS011;57848;51.938;15.520;2023-07-28T09:07:05;5.37;;;2.20;;
70420;SDS011;57848;51.938;15.520;2023-07-28T09:09:32;7.33;;;2.30;;
70420;SDS011;57848;51.938;15.520;2023-07-28T09:11:58;7.72;;;1.88;;
70420;SDS011;57848;51.938;15.520;2023-07-28T09:14:24;5.75;;;2.20;;
70420;SDS011;57848;51.938;15.520;2023-07-28T09:16:50;5.97;;;1.97;;
70420;SDS011;57848;51.938;15.520;2023-07-28T09:19:15;5.90;;;2.47;;
70420;SDS011;57848;51.938;15.520;2023-07-28T09:21:43;6.90;;;2.40;;
70420;SDS011;57848;51.938;15.520;2023-07-28T09:24:12;7.30;;;2.33;;
70420;SDS011;57848;51.938;15.520;2023-07-28T09:26:39;6.95;;;2.20;;
70420;SDS011;57848;51.938;15.520;2023-07-28T09:29:17;5.88;;;2.00;;
70420;SDS011;57848;51.938;15.520;2023-07-28T09:31:44;5.35;;;2.10;;
70420;SDS011;57848;51.938;15.520;2023-07-28T09:34:11;5.73;;;2.53;;
70420;SDS011;57848;51.938;15.520;2023-07-28T09:36:37;5.95;;;1.98;;
70420;SDS011;57848;51.938;15.520;2023-07-28T09:39:06;5.10;;;2.05;;
70420;SDS011;57848;51.938;15.520;2023-07-28T09:41:37;4.70;;;1.75;;
70420;SDS011;57848;51.938;15.520;2023-07-28T09:44:03;5.75;;;1.80;;
70420;SDS011;57848;51.938;15.520;2023-07-28T09:46:30;5.70;;;1.80;;
70420;SDS011;57848;51.938;15.520;2023-07-28T09:48:58;4.70;;;1.60;;
70420;SDS011;57848;51.938;15.520;2023-07-28T09:51:27;5.00;;;1.50;;
70420;SDS011;57848;51.938;15.520;2023-07-28T09:53:56;7.25;;;1.80;;
70420;SDS011;57848;51.938;15.520;2023-07-28T09:56:28;4.65;;;1.48;;
70420;SDS011;57848;51.938;15.520;2023-07-28T09:58:54;4.63;;;1.60;;
70420;SDS011;57848;51.938;15.520;2023-07-28T10:01:21;7.05;;;1.85;;
70420;SDS011;57848;51.938;15.520;2023-07-28T10:03:48;5.13;;;1.80;;
70420;SDS011;57848;51.938;15.520;2023-07-28T10:06:14;4.85;;;1.60;;
70420;SDS011;57848;51.938;15.520;2023-07-28T10:08:42;6.10;;;1.55;;
70420;SDS011;57848;51.938;15.520;2023-07-28T10:11:09;7.30;;;2.43;;
70420;SDS011;57848;51.938;15.520;2023-07-28T10:13:40;6.55;;;2.22;;
70420;SDS011;57848;51.938;15.520;2023-07-28T10:16:09;5.22;;;1.50;;
70420;SDS011;57848;51.938;15.520;2023-07-28T10:18:35;6.13;;;1.70;;
70420;SDS011;57848;51.938;15.520;2023-07-28T10:21:08;8.20;;;1.43;;
70420;SDS011;57848;51.938;15.520;2023-07-28T10:23:38;6.10;;;1.48;;
70420;SDS011;57848;51.938;15.520;2023-07-28T10:26:04;5.50;;;1.60;;
70420;SDS011;57848;51.938;15.520;2023-07-28T10:28:36;4.55;;;1.42;;
70420;SDS011;57848;51.938;15.520;2023-07-28T10:31:09;5.67;;;1.50;;
70420;SDS011;57848;51.938;15.520;2023-07-28T10:33:40;5.90;;;1.45;;
70420;SDS011;57848;51.938;15.520;2023-07-28T10:36:17;4.70;;;1.60;;
70420;SDS011;57848;51.938;15.520;2023-07-28T10:39:00;5.65;;;1.40;;
70420;SDS011;57848;51.938;15.520;2023-07-28T10:41:36;5.38;;;1.70;;
70420;SDS011;57848;51.938;15.520;2023-07-28T10:44:02;4.77;;;1.50;;
70420;SDS011;57848;51.938;15.520;2023-07-28T10:46:28;4.30;;;1.23;;
70420;SDS011;57848;51.938;15.520;2023-07-28T10:48:54;4.17;;;1.17;;
70420;SDS011;57848;51.938;15.520;2023-07-28T10:51:26;4.53;;;1.37;;
70420;SDS011;57848;51.938;15.520;2023-07-28T10:53:57;6.28;;;1.40;;
70420;SDS011;57848;51.938;15.520;2023-07-28T10:56:23;4.10;;;1.10;;
70420;SDS011;57848;51.938;15.520;2023-07-28T10:58:59;4.95;;;1.10;;
70420;SDS011;57848;51.938;15.520;2023-07-28T11:01:35;4.90;;;1.10;;
70420;SDS011;57848;51.938;15.520;2023-07-28T11:04:15;4.70;;;1.20;;
70420;SDS011;57848;51.938;15.520;2023-07-28T11:06:42;4.22;;;1.20;;
70420;SDS011;57848;51.938;15.520;2023-07-28T11:09:09;4.43;;;1.40;;
70420;SDS011;57848;51.938;15.520;2023-07-28T11:11:36;4.32;;;1.13;;
70420;SDS011;57848;51.938;15.520;2023-07-28T11:14:04;4.53;;;1.10;;
70420;SDS011;57848;51.938;15.520;2023-07-28T11:16:32;4.93;;;1.20;;
70420;SDS011;57848;51.938;15.520;2023-07-28T11:19:02;3.50;;;0.93;;
70420;SDS011;57848;51.938;15.520;2023-07-28T11:21:28;5.72;;;1.15;;
70420;SDS011;57848;51.938;15.520;2023-07-28T11:23:54;4.40;;;1.10;;
70420;SDS011;57848;51.938;15.520;2023-07-28T11:26:20;4.73;;;1.10;;
70420;SDS011;57848;51.938;15.520;2023-07-28T11:28:47;5.00;;;1.23;;
70420;SDS011;57848;51.938;15.520;2023-07-28T11:31:12;5.23;;;1.20;;
70420;SDS011;57848;51.938;15.520;2023-07-28T11:33:38;6.10;;;1.20;;
70420;SDS011;57848;51.938;15.520;2023-07-28T11:36:04;4.28;;;1.20;;
70420;SDS011;57848;51.938;15.520;2023-07-28T11:38:29;4.33;;;1.10;;
70420;SDS011;57848;51.938;15.520;2023-07-28T11:40:56;4.03;;;1.23;;
70420;SDS011;57848;51.938;15.520;2023-07-28T11:43:22;4.97;;;1.00;;
70420;SDS011;57848;51.938;15.520;2023-07-28T11:45:48;3.95;;;1.08;;
70420;SDS011;57848;51.938;15.520;2023-07-28T11:48:14;5.63;;;1.20;;
70420;SDS011;57848;51.938;15.520;2023-07-28T11:50:41;5.10;;;1.50;;
70420;SDS011;57848;51.938;15.520;2023-07-28T11:53:08;6.17;;;1.50;;
70420;SDS011;57848;51.938;15.520;2023-07-28T11:55:35;5.05;;;1.20;;
70420;SDS011;57848;51.938;15.520;2023-07-28T11:58:01;3.72;;;1.23;;
70420;SDS011;57848;51.938;15.520;2023-07-28T12:00:33;3.47;;;1.00;;
70420;SDS011;57848;51.938;15.520;2023-07-28T12:03:01;5.20;;;1.20;;
70420;SDS011;57848;51.938;15.520;2023-07-28T12:05:28;3.83;;;1.10;;
70420;SDS011;57848;51.938;15.520;2023-07-28T12:07:54;4.53;;;1.38;;
70420;SDS011;57848;51.938;15.520;2023-07-28T12:10:19;4.27;;;1.10;;
70420;SDS011;57848;51.938;15.520;2023-07-28T12:12:45;4.50;;;1.23;;
70420;SDS011;57848;51.938;15.520;2023-07-28T12:15:18;3.93;;;1.13;;
70420;SDS011;57848;51.938;15.520;2023-07-28T12:23:04;6.82;;;1.10;;
70420;SDS011;57848;51.938;15.520;2023-07-28T12:25:30;4.28;;;1.10;;
70420;SDS011;57848;51.938;15.520;2023-07-28T12:27:56;5.03;;;1.50;;
70420;SDS011;57848;51.938;15.520;2023-07-28T12:30:21;4.43;;;1.30;;
70420;SDS011;57848;51.938;15.520;2023-07-28T12:32:47;4.53;;;1.50;;
70420;SDS011;57848;51.938;15.520;2023-07-28T12:35:13;4.63;;;1.60;;
70420;SDS011;57848;51.938;15.520;2023-07-28T12:37:38;4.88;;;1.20;;
70420;SDS011;57848;51.938;15.520;2023-07-28T12:40:04;4.30;;;1.23;;
70420;SDS011;57848;51.938;15.520;2023-07-28T12:42:31;4.18;;;1.42;;
70420;SDS011;57848;51.938;15.520;2023-07-28T12:44:56;4.75;;;1.30;;
70420;SDS011;57848;51.938;15.520;2023-07-28T12:47:22;4.07;;;1.40;;
70420;SDS011;57848;51.938;15.520;2023-07-28T12:49:47;7.10;;;1.50;;
70420;SDS011;57848;51.938;15.520;2023-07-28T12:52:13;4.40;;;1.30;;
70420;SDS011;57848;51.938;15.520;2023-07-28T12:54:38;4.70;;;1.20;;
70420;SDS011;57848;51.938;15.520;2023-07-28T12:57:04;4.20;;;1.30;;
70420;SDS011;57848;51.938;15.520;2023-07-28T12:59:32;3.75;;;1.15;;
70420;SDS011;57848;51.938;15.520;2023-07-28T13:01:57;4.47;;;1.20;;
70420;SDS011;57848;51.938;15.520;2023-07-28T13:04:23;6.38;;;1.60;;
70420;SDS011;57848;51.938;15.520;2023-07-28T13:06:48;4.33;;;1.30;;
70420;SDS011;57848;51.938;15.520;2023-07-28T13:09:14;4.60;;;1.10;;
70420;SDS011;57848;51.938;15.520;2023-07-28T13:11:39;4.10;;;0.93;;
70420;SDS011;57848;51.938;15.520;2023-07-28T13:14:04;4.97;;;1.37;;
70420;SDS011;57848;51.938;15.520;2023-07-28T13:16:30;3.95;;;1.17;;
70420;SDS011;57848;51.938;15.520;2023-07-28T13:18:56;4.72;;;1.40;;
70420;SDS011;57848;51.938;15.520;2023-07-28T13:21:22;4.20;;;1.20;;
70420;SDS011;57848;51.938;15.520;2023-07-28T13:23:48;4.03;;;1.10;;
70420;SDS011;57848;51.938;15.520;2023-07-28T13:26:13;4.40;;;1.10;;
70420;SDS011;57848;51.938;15.520;2023-07-28T13:28:39;4.90;;;1.15;;
70420;SDS011;57848;51.938;15.520;2023-07-28T13:31:08;5.75;;;1.20;;
70420;SDS011;57848;51.938;15.520;2023-07-28T13:33:33;4.50;;;1.40;;
70420;SDS011;57848;51.938;15.520;2023-07-28T13:35:59;4.60;;;1.20;;
70420;SDS011;57848;51.938;15.520;2023-07-28T13:38:24;4.53;;;1.17;;
70420;SDS011;57848;51.938;15.520;2023-07-28T13:40:49;3.80;;;1.00;;
70420;SDS011;57848;51.938;15.520;2023-07-28T13:43:15;5.23;;;1.20;;
70420;SDS011;57848;51.938;15.520;2023-07-28T13:45:40;3.90;;;1.10;;
70420;SDS011;57848;51.938;15.520;2023-07-28T13:48:05;4.27;;;1.20;;
70420;SDS011;57848;51.938;15.520;2023-07-28T13:50:31;3.30;;;1.07;;
70420;SDS011;57848;51.938;15.520;2023-07-28T13:52:56;5.73;;;1.10;;
70420;SDS011;57848;51.938;15.520;2023-07-28T13:55:21;4.10;;;1.13;;
70420;SDS011;57848;51.938;15.520;2023-07-28T13:57:47;4.77;;;1.00;;
70420;SDS011;57848;51.938;15.520;2023-07-28T14:00:12;4.33;;;1.20;;
70420;SDS011;57848;51.938;15.520;2023-07-28T14:02:38;7.23;;;1.40;;
70420;SDS011;57848;51.938;15.520;2023-07-28T14:05:05;7.75;;;2.00;;
70420;SDS011;57848;51.938;15.520;2023-07-28T14:07:31;6.72;;;1.80;;
70420;SDS011;57848;51.938;15.520;2023-07-28T14:09:56;6.35;;;1.83;;
70420;SDS011;57848;51.938;15.520;2023-07-28T14:12:22;6.17;;;1.70;;
70420;SDS011;57848;51.938;15.520;2023-07-28T14:14:47;5.10;;;1.77;;
70420;SDS011;57848;51.938;15.520;2023-07-28T14:17:14;5.22;;;1.88;;
70420;SDS011;57848;51.938;15.520;2023-07-28T14:19:40;6.35;;;2.13;;
70420;SDS011;57848;51.938;15.520;2023-07-28T14:22:05;6.17;;;2.00;;
70420;SDS011;57848;51.938;15.520;2023-07-28T14:24:31;5.00;;;1.70;;
70420;SDS011;57848;51.938;15.520;2023-07-28T14:26:56;5.70;;;2.00;;
70420;SDS011;57848;51.938;15.520;2023-07-28T14:29:22;5.37;;;1.83;;
70420;SDS011;57848;51.938;15.520;2023-07-28T14:31:47;6.28;;;1.88;;
70420;SDS011;57848;51.938;15.520;2023-07-28T14:34:12;6.27;;;1.87;;
70420;SDS011;57848;51.938;15.520;2023-07-28T14:36:38;6.07;;;1.70;;